sensor_id;sensor_type;location;lat;lon;timestamp;P1;durP1;ratioP1;P2;durP2;ratioP2
21046;SDS011;10682;50.874;3.656;2023-07-29T00:00:53;9.68;;;2.80;;
21046;SDS011;10682;50.874;3.656;2023-07-29T00:03:24;5.18;;;2.90;;
21046;SDS011;10682;50.874;3.656;2023-07-29T00:05:51;5.95;;;2.72;;
21046;SDS011;10682;50.874;3.656;2023-07-29T00:08:19;7.13;;;3.20;;
21046;SDS011;10682;50.874;3.656;2023-07-29T00:10:46;5.78;;;2.63;;
21046;SDS011;10682;50.874;3.656;2023-07-29T00:13:15;7.85;;;2.90;;
21046;SDS011;10682;50.874;3.656;2023-07-29T00:15:42;7.35;;;2.65;;
21046;SDS011;10682;50.874;3.656;2023-07-29T00:18:10;7.63;;;3.13;;
21046;SDS011;10682;50.874;3.656;2023-07-29T00:20:37;7.93;;;2.95;;
21046;SDS011;10682;50.874;3.656;2023-07-29T00:23:06;7.72;;;3.08;;
21046;SDS011;10682;50.874;3.656;2023-07-29T00:25:35;6.72;;;2.90;;
21046;SDS011;10682;50.874;3.656;2023-07-29T00:28:02;6.45;;;2.20;;
21046;SDS011;10682;50.874;3.656;2023-07-29T00:30:29;6.70;;;2.70;;
21046;SDS011;10682;50.874;3.656;2023-07-29T00:32:56;3.42;;;2.40;;
21046;SDS011;10682;50.874;3.656;2023-07-29T00:35:23;4.90;;;2.47;;
21046;SDS011;10682;50.874;3.656;2023-07-29T00:37:53;5.05;;;2.50;;
21046;SDS011;10682;50.874;3.656;2023-07-29T00:40:21;10.35;;;2.80;;
21046;SDS011;10682;50.874;3.656;2023-07-29T00:42:49;5.57;;;2.30;;
21046;SDS011;10682;50.874;3.656;2023-07-29T00:45:17;5.82;;;2.10;;
21046;SDS011;10682;50.874;3.656;2023-07-29T00:47:45;4.55;;;2.33;;
21046;SDS011;10682;50.874;3.656;2023-07-29T00:50:14;4.80;;;2.08;;
21046;SDS011;10682;50.874;3.656;2023-07-29T00:52:42;5.82;;;2.47;;
21046;SDS011;10682;50.874;3.656;2023-07-29T00:55:09;6.07;;;2.70;;
21046;SDS011;10682;50.874;3.656;2023-07-29T00:57:36;5.18;;;1.92;;
21046;SDS011;10682;50.874;3.656;2023-07-29T01:00:04;3.75;;;2.33;;
21046;SDS011;10682;50.874;3.656;2023-07-29T01:02:32;5.72;;;2.60;;
21046;SDS011;10682;50.874;3.656;2023-07-29T01:04:59;4.43;;;2.58;;
21046;SDS011;10682;50.874;3.656;2023-07-29T01:10:46;4.03;;;2.30;;
21046;SDS011;10682;50.874;3.656;2023-07-29T01:13:30;4.07;;;2.08;;
21046;SDS011;10682;50.874;3.656;2023-07-29T01:16:17;3.45;;;2.30;;
21046;SDS011;10682;50.874;3.656;2023-07-29T01:18:52;4.80;;;2.08;;
21046;SDS011;10682;50.874;3.656;2023-07-29T01:21:20;5.07;;;2.05;;
21046;SDS011;10682;50.874;3.656;2023-07-29T01:23:53;4.78;;;2.33;;
21046;SDS011;10682;50.874;3.656;2023-07-29T01:26:25;7.25;;;2.70;;
21046;SDS011;10682;50.874;3.656;2023-07-29T01:28:52;2.80;;;2.20;;
21046;SDS011;10682;50.874;3.656;2023-07-29T01:31:23;6.85;;;2.63;;
21046;SDS011;10682;50.874;3.656;2023-07-29T01:34:35;7.10;;;2.50;;
21046;SDS011;10682;50.874;3.656;2023-07-29T01:36:59;7.90;;;2.40;;
21046;SDS011;10682;50.874;3.656;2023-07-29T01:39:29;10.13;;;2.83;;
21046;SDS011;10682;50.874;3.656;2023-07-29T01:42:02;7.10;;;2.88;;
21046;SDS011;10682;50.874;3.656;2023-07-29T01:44:30;6.30;;;2.70;;
21046;SDS011;10682;50.874;3.656;2023-07-29T01:46:58;5.22;;;2.58;;
21046;SDS011;10682;50.874;3.656;2023-07-29T01:49:26;4.00;;;2.42;;
21046;SDS011;10682;50.874;3.656;2023-07-29T01:51:53;4.65;;;2.28;;
21046;SDS011;10682;50.874;3.656;2023-07-29T01:54:20;4.43;;;2.78;;
21046;SDS011;10682;50.874;3.656;2023-07-29T01:56:48;4.55;;;2.28;;
21046;SDS011;10682;50.874;3.656;2023-07-29T01:59:18;3.72;;;2.30;;
21046;SDS011;10682;50.874;3.656;2023-07-29T02:01:45;4.50;;;2.30;;
21046;SDS011;10682;50.874;3.656;2023-07-29T02:04:13;5.88;;;2.15;;
21046;SDS011;10682;50.874;3.656;2023-07-29T02:06:40;5.95;;;2.80;;
21046;SDS011;10682;50.874;3.656;2023-07-29T02:09:07;8.27;;;2.15;;
21046;SDS011;10682;50.874;3.656;2023-07-29T02:11:36;4.90;;;2.30;;
21046;SDS011;10682;50.874;3.656;2023-07-29T02:14:03;4.90;;;2.30;;
21046;SDS011;10682;50.874;3.656;2023-07-29T02:16:30;5.07;;;2.38;;
21046;SDS011;10682;50.874;3.656;2023-07-29T02:18:59;5.32;;;2.42;;
21046;SDS011;10682;50.874;3.656;2023-07-29T02:21:29;5.95;;;2.28;;
21046;SDS011;10682;50.874;3.656;2023-07-29T02:23:56;4.03;;;2.10;;
21046;SDS011;10682;50.874;3.656;2023-07-29T02:26:23;5.10;;;2.45;;
21046;SDS011;10682;50.874;3.656;2023-07-29T02:28:51;4.07;;;2.00;;
21046;SDS011;10682;50.874;3.656;2023-07-29T02:31:21;4.20;;;2.33;;
21046;SDS011;10682;50.874;3.656;2023-07-29T02:33:51;6.85;;;2.70;;
21046;SDS011;10682;50.874;3.656;2023-07-29T02:36:19;5.53;;;1.98;;
21046;SDS011;10682;50.874;3.656;2023-07-29T02:38:46;5.47;;;2.08;;
21046;SDS011;10682;50.874;3.656;2023-07-29T02:41:14;4.90;;;1.83;;
21046;SDS011;10682;50.874;3.656;2023-07-29T02:43:43;5.30;;;2.30;;
21046;SDS011;10682;50.874;3.656;2023-07-29T02:46:14;5.32;;;2.22;;
21046;SDS011;10682;50.874;3.656;2023-07-29T02:48:42;6.07;;;2.15;;
21046;SDS011;10682;50.874;3.656;2023-07-29T02:51:11;2.92;;;1.90;;
21046;SDS011;10682;50.874;3.656;2023-07-29T02:53:38;6.05;;;2.33;;
21046;SDS011;10682;50.874;3.656;2023-07-29T02:56:05;4.28;;;2.30;;
21046;SDS011;10682;50.874;3.656;2023-07-29T02:58:36;7.15;;;2.25;;
21046;SDS011;10682;50.874;3.656;2023-07-29T03:01:04;7.72;;;2.40;;
21046;SDS011;10682;50.874;3.656;2023-07-29T03:03:32;7.78;;;2.28;;
21046;SDS011;10682;50.874;3.656;2023-07-29T03:06:01;5.82;;;2.53;;
21046;SDS011;10682;50.874;3.656;2023-07-29T03:08:31;5.25;;;2.38;;
21046;SDS011;10682;50.874;3.656;2023-07-29T03:10:58;5.50;;;2.40;;
21046;SDS011;10682;50.874;3.656;2023-07-29T03:13:32;5.43;;;2.42;;
21046;SDS011;10682;50.874;3.656;2023-07-29T03:16:11;6.60;;;2.10;;
21046;SDS011;10682;50.874;3.656;2023-07-29T03:18:43;6.13;;;2.17;;
21046;SDS011;10682;50.874;3.656;2023-07-29T03:21:11;5.10;;;2.70;;
21046;SDS011;10682;50.874;3.656;2023-07-29T03:23:38;6.60;;;2.30;;
21046;SDS011;10682;50.874;3.656;2023-07-29T03:26:05;5.45;;;2.50;;
21046;SDS011;10682;50.874;3.656;2023-07-29T03:28:42;8.45;;;2.30;;
21046;SDS011;10682;50.874;3.656;2023-07-29T03:31:10;6.55;;;2.78;;
21046;SDS011;10682;50.874;3.656;2023-07-29T03:33:37;5.10;;;2.50;;
21046;SDS011;10682;50.874;3.656;2023-07-29T03:36:05;5.88;;;2.83;;
21046;SDS011;10682;50.874;3.656;2023-07-29T03:38:35;6.38;;;2.50;;
21046;SDS011;10682;50.874;3.656;2023-07-29T03:41:08;4.88;;;2.60;;
21046;SDS011;10682;50.874;3.656;2023-07-29T03:43:35;3.40;;;2.15;;
21046;SDS011;10682;50.874;3.656;2023-07-29T03:46:02;4.82;;;2.55;;
21046;SDS011;10682;50.874;3.656;2023-07-29T03:48:29;4.90;;;2.40;;
21046;SDS011;10682;50.874;3.656;2023-07-29T03:50:58;5.00;;;2.35;;
21046;SDS011;10682;50.874;3.656;2023-07-29T03:53:27;5.80;;;2.33;;
21046;SDS011;10682;50.874;3.656;2023-07-29T03:55:56;3.85;;;2.40;;
21046;SDS011;10682;50.874;3.656;2023-07-29T03:58:23;5.47;;;2.50;;
21046;SDS011;10682;50.874;3.656;2023-07-29T04:00:50;10.18;;;2.60;;
21046;SDS011;10682;50.874;3.656;2023-07-29T04:03:17;2.97;;;2.15;;
21046;SDS011;10682;50.874;3.656;2023-07-29T04:08:16;5.75;;;2.20;;
21046;SDS011;10682;50.874;3.656;2023-07-29T04:10:43;3.55;;;2.13;;
21046;SDS011;10682;50.874;3.656;2023-07-29T04:13:10;8.20;;;2.58;;
21046;SDS011;10682;50.874;3.656;2023-07-29T04:15:38;6.78;;;2.97;;
21046;SDS011;10682;50.874;3.656;2023-07-29T04:18:05;6.05;;;2.00;;
21046;SDS011;10682;50.874;3.656;2023-07-29T04:20:32;5.22;;;2.30;;
21046;SDS011;10682;50.874;3.656;2023-07-29T04:23:01;5.50;;;2.17;;
21046;SDS011;10682;50.874;3.656;2023-07-29T04:25:28;7.45;;;2.88;;
21046;SDS011;10682;50.874;3.656;2023-07-29T04:27:58;5.18;;;2.90;;
21046;SDS011;10682;50.874;3.656;2023-07-29T04:30:26;5.00;;;2.60;;
21046;SDS011;10682;50.874;3.656;2023-07-29T04:32:54;7.40;;;2.40;;
21046;SDS011;10682;50.874;3.656;2023-07-29T04:35:21;6.00;;;2.30;;
21046;SDS011;10682;50.874;3.656;2023-07-29T04:37:48;6.22;;;2.28;;
21046;SDS011;10682;50.874;3.656;2023-07-29T04:40:16;2.80;;;2.15;;
21046;SDS011;10682;50.874;3.656;2023-07-29T04:42:46;5.32;;;2.10;;
21046;SDS011;10682;50.874;3.656;2023-07-29T04:45:13;5.68;;;2.30;;
21046;SDS011;10682;50.874;3.656;2023-07-29T04:47:40;4.22;;;2.13;;
21046;SDS011;10682;50.874;3.656;2023-07-29T04:50:07;5.93;;;2.40;;
21046;SDS011;10682;50.874;3.656;2023-07-29T04:52:35;3.53;;;2.15;;
21046;SDS011;10682;50.874;3.656;2023-07-29T04:55:03;4.50;;;2.20;;
21046;SDS011;10682;50.874;3.656;2023-07-29T04:57:30;6.10;;;2.35;;
21046;SDS011;10682;50.874;3.656;2023-07-29T04:59:57;5.63;;;2.30;;
21046;SDS011;10682;50.874;3.656;2023-07-29T05:02:24;4.15;;;2.58;;
21046;SDS011;10682;50.874;3.656;2023-07-29T05:04:52;6.05;;;2.53;;
21046;SDS011;10682;50.874;3.656;2023-07-29T05:07:19;5.90;;;2.55;;
21046;SDS011;10682;50.874;3.656;2023-07-29T05:09:47;6.00;;;2.45;;
21046;SDS011;10682;50.874;3.656;2023-07-29T05:12:14;6.97;;;2.17;;
21046;SDS011;10682;50.874;3.656;2023-07-29T05:14:42;3.88;;;2.40;;
21046;SDS011;10682;50.874;3.656;2023-07-29T05:17:09;4.13;;;2.17;;
21046;SDS011;10682;50.874;3.656;2023-07-29T05:19:36;5.30;;;2.13;;
21046;SDS011;10682;50.874;3.656;2023-07-29T05:22:03;5.60;;;2.25;;
21046;SDS011;10682;50.874;3.656;2023-07-29T05:24:31;8.55;;;2.20;;
21046;SDS011;10682;50.874;3.656;2023-07-29T05:26:58;4.80;;;2.33;;
21046;SDS011;10682;50.874;3.656;2023-07-29T05:29:25;3.75;;;1.98;;
21046;SDS011;10682;50.874;3.656;2023-07-29T05:31:52;5.35;;;2.10;;
21046;SDS011;10682;50.874;3.656;2023-07-29T05:34:19;3.78;;;2.20;;
21046;SDS011;10682;50.874;3.656;2023-07-29T05:36:46;6.55;;;2.45;;
21046;SDS011;10682;50.874;3.656;2023-07-29T05:39:13;7.97;;;2.00;;
21046;SDS011;10682;50.874;3.656;2023-07-29T05:41:40;4.75;;;2.10;;
21046;SDS011;10682;50.874;3.656;2023-07-29T05:44:09;5.35;;;2.13;;
21046;SDS011;10682;50.874;3.656;2023-07-29T05:46:36;6.22;;;1.85;;
21046;SDS011;10682;50.874;3.656;2023-07-29T05:49:04;3.40;;;1.75;;
21046;SDS011;10682;50.874;3.656;2023-07-29T05:51:31;5.88;;;1.92;;
21046;SDS011;10682;50.874;3.656;2023-07-29T05:53:58;6.45;;;2.05;;
21046;SDS011;10682;50.874;3.656;2023-07-29T05:56:25;4.70;;;2.25;;
21046;SDS011;10682;50.874;3.656;2023-07-29T05:58:52;3.33;;;1.60;;
21046;SDS011;10682;50.874;3.656;2023-07-29T06:01:19;2.72;;;1.60;;
21046;SDS011;10682;50.874;3.656;2023-07-29T06:03:48;5.22;;;1.77;;
21046;SDS011;10682;50.874;3.656;2023-07-29T06:06:15;5.93;;;2.03;;
21046;SDS011;10682;50.874;3.656;2023-07-29T06:08:43;3.47;;;1.60;;
21046;SDS011;10682;50.874;3.656;2023-07-29T06:11:11;6.80;;;1.83;;
21046;SDS011;10682;50.874;3.656;2023-07-29T06:13:38;5.78;;;1.67;;
21046;SDS011;10682;50.874;3.656;2023-07-29T06:16:06;6.20;;;1.85;;
21046;SDS011;10682;50.874;3.656;2023-07-29T06:18:33;3.42;;;1.70;;
21046;SDS011;10682;50.874;3.656;2023-07-29T06:21:01;2.35;;;1.67;;
21046;SDS011;10682;50.874;3.656;2023-07-29T06:23:28;3.47;;;2.08;;
21046;SDS011;10682;50.874;3.656;2023-07-29T06:25:55;2.33;;;1.70;;
21046;SDS011;10682;50.874;3.656;2023-07-29T06:28:22;3.45;;;1.40;;
21046;SDS011;10682;50.874;3.656;2023-07-29T06:30:49;5.00;;;1.75;;
21046;SDS011;10682;50.874;3.656;2023-07-29T06:33:16;4.53;;;1.88;;
21046;SDS011;10682;50.874;3.656;2023-07-29T06:35:44;4.35;;;2.00;;
21046;SDS011;10682;50.874;3.656;2023-07-29T06:38:11;4.18;;;1.52;;
21046;SDS011;10682;50.874;3.656;2023-07-29T06:40:38;3.33;;;1.70;;
21046;SDS011;10682;50.874;3.656;2023-07-29T06:43:05;7.53;;;2.00;;
21046;SDS011;10682;50.874;3.656;2023-07-29T06:45:32;3.13;;;1.90;;
21046;SDS011;10682;50.874;3.656;2023-07-29T06:48:00;5.07;;;1.90;;
21046;SDS011;10682;50.874;3.656;2023-07-29T06:50:27;4.85;;;1.58;;
21046;SDS011;10682;50.874;3.656;2023-07-29T06:52:54;4.85;;;1.90;;
21046;SDS011;10682;50.874;3.656;2023-07-29T06:55:21;3.28;;;1.83;;
21046;SDS011;10682;50.874;3.656;2023-07-29T06:57:48;4.82;;;1.80;;
21046;SDS011;10682;50.874;3.656;2023-07-29T07:00:15;4.53;;;1.58;;
21046;SDS011;10682;50.874;3.656;2023-07-29T07:02:42;3.78;;;1.70;;
21046;SDS011;10682;50.874;3.656;2023-07-29T07:05:10;3.65;;;1.60;;
21046;SDS011;10682;50.874;3.656;2023-07-29T07:07:37;6.28;;;1.80;;
21046;SDS011;10682;50.874;3.656;2023-07-29T07:10:05;3.05;;;1.40;;
21046;SDS011;10682;50.874;3.656;2023-07-29T07:12:33;2.22;;;1.27;;
21046;SDS011;10682;50.874;3.656;2023-07-29T07:15:00;1.60;;;1.38;;
21046;SDS011;10682;50.874;3.656;2023-07-29T07:17:27;3.60;;;1.40;;
21046;SDS011;10682;50.874;3.656;2023-07-29T07:19:55;6.07;;;1.50;;
21046;SDS011;10682;50.874;3.656;2023-07-29T07:22:22;4.15;;;1.33;;
21046;SDS011;10682;50.874;3.656;2023-07-29T07:24:50;4.72;;;1.60;;
21046;SDS011;10682;50.874;3.656;2023-07-29T07:27:17;4.00;;;1.40;;
21046;SDS011;10682;50.874;3.656;2023-07-29T07:29:44;2.83;;;1.30;;
21046;SDS011;10682;50.874;3.656;2023-07-29T07:32:11;2.80;;;1.20;;
21046;SDS011;10682;50.874;3.656;2023-07-29T07:34:38;5.95;;;1.40;;
21046;SDS011;10682;50.874;3.656;2023-07-29T07:37:05;2.70;;;1.45;;
21046;SDS011;10682;50.874;3.656;2023-07-29T07:39:32;5.43;;;1.55;;
21046;SDS011;10682;50.874;3.656;2023-07-29T07:42:00;2.03;;;1.40;;
21046;SDS011;10682;50.874;3.656;2023-07-29T07:44:27;2.85;;;1.48;;
21046;SDS011;10682;50.874;3.656;2023-07-29T07:46:54;2.35;;;1.55;;
21046;SDS011;10682;50.874;3.656;2023-07-29T07:49:21;2.97;;;1.50;;
21046;SDS011;10682;50.874;3.656;2023-07-29T07:51:49;5.28;;;1.60;;
21046;SDS011;10682;50.874;3.656;2023-07-29T07:54:16;3.50;;;1.40;;
21046;SDS011;10682;50.874;3.656;2023-07-29T07:56:44;3.00;;;1.52;;
21046;SDS011;10682;50.874;3.656;2023-07-29T07:59:11;3.70;;;1.63;;
21046;SDS011;10682;50.874;3.656;2023-07-29T08:01:42;2.53;;;1.58;;
21046;SDS011;10682;50.874;3.656;2023-07-29T08:04:10;3.22;;;1.25;;
21046;SDS011;10682;50.874;3.656;2023-07-29T08:06:37;2.90;;;1.30;;
21046;SDS011;10682;50.874;3.656;2023-07-29T08:09:04;3.40;;;1.50;;
21046;SDS011;10682;50.874;3.656;2023-07-29T08:11:32;3.67;;;1.60;;
21046;SDS011;10682;50.874;3.656;2023-07-29T08:14:00;4.45;;;1.77;;
21046;SDS011;10682;50.874;3.656;2023-07-29T08:16:27;2.50;;;1.50;;
21046;SDS011;10682;50.874;3.656;2023-07-29T08:18:54;4.40;;;1.60;;
21046;SDS011;10682;50.874;3.656;2023-07-29T08:21:22;3.75;;;1.60;;
21046;SDS011;10682;50.874;3.656;2023-07-29T08:23:49;3.30;;;1.48;;
21046;SDS011;10682;50.874;3.656;2023-07-29T08:26:17;2.20;;;1.40;;
21046;SDS011;10682;50.874;3.656;2023-07-29T08:28:45;4.47;;;1.80;;
21046;SDS011;10682;50.874;3.656;2023-07-29T08:31:12;3.47;;;1.73;;
21046;SDS011;10682;50.874;3.656;2023-07-29T08:33:39;5.22;;;1.92;;
21046;SDS011;10682;50.874;3.656;2023-07-29T08:36:06;3.53;;;1.60;;
21046;SDS011;10682;50.874;3.656;2023-07-29T08:38:33;4.32;;;1.77;;
21046;SDS011;10682;50.874;3.656;2023-07-29T08:46:50;3.85;;;1.73;;
21046;SDS011;10682;50.874;3.656;2023-07-29T08:49:19;3.30;;;1.73;;
21046;SDS011;10682;50.874;3.656;2023-07-29T08:51:49;4.55;;;1.63;;
21046;SDS011;10682;50.874;3.656;2023-07-29T08:54:20;6.45;;;1.75;;
21046;SDS011;10682;50.874;3.656;2023-07-29T08:56:48;2.60;;;1.60;;
21046;SDS011;10682;50.874;3.656;2023-07-29T08:59:15;2.42;;;1.60;;
21046;SDS011;10682;50.874;3.656;2023-07-29T09:01:46;3.65;;;1.90;;
21046;SDS011;10682;50.874;3.656;2023-07-29T09:04:14;3.40;;;1.70;;
21046;SDS011;10682;50.874;3.656;2023-07-29T09:06:42;5.63;;;1.80;;
21046;SDS011;10682;50.874;3.656;2023-07-29T09:09:10;4.07;;;1.88;;
21046;SDS011;10682;50.874;3.656;2023-07-29T09:11:38;6.38;;;2.00;;
21046;SDS011;10682;50.874;3.656;2023-07-29T09:14:05;3.40;;;2.00;;
21046;SDS011;10682;50.874;3.656;2023-07-29T09:16:33;3.17;;;1.90;;
21046;SDS011;10682;50.874;3.656;2023-07-29T09:19:02;3.70;;;1.63;;
21046;SDS011;10682;50.874;3.656;2023-07-29T09:24:03;2.53;;;1.80;;
21046;SDS011;10682;50.874;3.656;2023-07-29T09:26:31;3.95;;;1.90;;
21046;SDS011;10682;50.874;3.656;2023-07-29T09:28:58;3.35;;;1.98;;
21046;SDS011;10682;50.874;3.656;2023-07-29T09:31:27;3.13;;;2.00;;
21046;SDS011;10682;50.874;3.656;2023-07-29T09:33:56;3.42;;;1.85;;
21046;SDS011;10682;50.874;3.656;2023-07-29T09:36:31;3.70;;;1.98;;
21046;SDS011;10682;50.874;3.656;2023-07-29T09:38:59;3.30;;;1.90;;
21046;SDS011;10682;50.874;3.656;2023-07-29T09:41:28;4.80;;;2.28;;
21046;SDS011;10682;50.874;3.656;2023-07-29T09:44:10;7.20;;;2.05;;
21046;SDS011;10682;50.874;3.656;2023-07-29T09:46:37;3.80;;;2.00;;
21046;SDS011;10682;50.874;3.656;2023-07-29T09:49:06;5.43;;;2.47;;
21046;SDS011;10682;50.874;3.656;2023-07-29T09:51:38;3.97;;;2.13;;
21046;SDS011;10682;50.874;3.656;2023-07-29T09:54:06;6.80;;;2.22;;
21046;SDS011;10682;50.874;3.656;2023-07-29T09:56:33;6.10;;;2.30;;
21046;SDS011;10682;50.874;3.656;2023-07-29T09:59:06;4.82;;;2.00;;
21046;SDS011;10682;50.874;3.656;2023-07-29T10:01:33;4.85;;;2.30;;
21046;SDS011;10682;50.874;3.656;2023-07-29T10:04:03;3.75;;;1.90;;
21046;SDS011;10682;50.874;3.656;2023-07-29T10:06:31;3.58;;;2.20;;
21046;SDS011;10682;50.874;3.656;2023-07-29T10:09:02;5.07;;;2.00;;
21046;SDS011;10682;50.874;3.656;2023-07-29T10:11:30;3.25;;;1.90;;
21046;SDS011;10682;50.874;3.656;2023-07-29T10:13:59;4.47;;;1.95;;
21046;SDS011;10682;50.874;3.656;2023-07-29T10:16:36;3.60;;;1.80;;
21046;SDS011;10682;50.874;3.656;2023-07-29T10:19:05;2.05;;;1.27;;
21046;SDS011;10682;50.874;3.656;2023-07-29T10:21:38;2.72;;;1.58;;
21046;SDS011;10682;50.874;3.656;2023-07-29T10:24:09;3.15;;;1.48;;
21046;SDS011;10682;50.874;3.656;2023-07-29T10:26:43;2.00;;;1.20;;
21046;SDS011;10682;50.874;3.656;2023-07-29T10:29:13;1.42;;;1.20;;
21046;SDS011;10682;50.874;3.656;2023-07-29T10:31:45;4.40;;;1.05;;
21046;SDS011;10682;50.874;3.656;2023-07-29T10:34:13;2.15;;;1.23;;
21046;SDS011;10682;50.874;3.656;2023-07-29T10:36:41;5.32;;;1.30;;
21046;SDS011;10682;50.874;3.656;2023-07-29T10:39:08;1.60;;;1.25;;
21046;SDS011;10682;50.874;3.656;2023-07-29T10:41:56;1.63;;;1.30;;
21046;SDS011;10682;50.874;3.656;2023-07-29T10:47:13;3.95;;;1.65;;
21046;SDS011;10682;50.874;3.656;2023-07-29T10:49:53;2.85;;;1.63;;
21046;SDS011;10682;50.874;3.656;2023-07-29T10:55:03;2.40;;;1.60;;
21046;SDS011;10682;50.874;3.656;2023-07-29T10:57:50;2.22;;;1.52;;
21046;SDS011;10682;50.874;3.656;2023-07-29T11:00:19;1.90;;;1.52;;
21046;SDS011;10682;50.874;3.656;2023-07-29T11:02:58;2.15;;;1.40;;
21046;SDS011;10682;50.874;3.656;2023-07-29T11:05:42;2.60;;;1.40;;
21046;SDS011;10682;50.874;3.656;2023-07-29T11:08:17;2.47;;;1.13;;
21046;SDS011;10682;50.874;3.656;2023-07-29T11:11:02;2.70;;;1.00;;
21046;SDS011;10682;50.874;3.656;2023-07-29T11:13:35;1.92;;;1.33;;
21046;SDS011;10682;50.874;3.656;2023-07-29T11:16:05;3.65;;;1.35;;
21046;SDS011;10682;50.874;3.656;2023-07-29T11:18:42;4.32;;;1.45;;
21046;SDS011;10682;50.874;3.656;2023-07-29T11:21:19;2.60;;;1.63;;
21046;SDS011;10682;50.874;3.656;2023-07-29T11:23:47;3.58;;;1.48;;
21046;SDS011;10682;50.874;3.656;2023-07-29T11:26:15;2.08;;;1.40;;
21046;SDS011;10682;50.874;3.656;2023-07-29T11:28:42;4.05;;;1.52;;
21046;SDS011;10682;50.874;3.656;2023-07-29T11:31:09;3.75;;;1.58;;
21046;SDS011;10682;50.874;3.656;2023-07-29T11:33:38;2.97;;;1.20;;
21046;SDS011;10682;50.874;3.656;2023-07-29T11:36:16;1.90;;;1.38;;
21046;SDS011;10682;50.874;3.656;2023-07-29T11:38:45;2.95;;;1.55;;
21046;SDS011;10682;50.874;3.656;2023-07-29T11:41:18;2.35;;;1.50;;
21046;SDS011;10682;50.874;3.656;2023-07-29T11:43:47;3.90;;;1.50;;
21046;SDS011;10682;50.874;3.656;2023-07-29T11:46:14;3.35;;;1.35;;
21046;SDS011;10682;50.874;3.656;2023-07-29T11:48:41;4.18;;;1.63;;
21046;SDS011;10682;50.874;3.656;2023-07-29T11:51:11;2.28;;;1.77;;
21046;SDS011;10682;50.874;3.656;2023-07-29T11:53:39;3.50;;;1.48;;
21046;SDS011;10682;50.874;3.656;2023-07-29T11:56:08;2.35;;;1.40;;
21046;SDS011;10682;50.874;3.656;2023-07-29T11:58:36;2.75;;;1.75;;
21046;SDS011;10682;50.874;3.656;2023-07-29T12:01:03;2.58;;;1.60;;
21046;SDS011;10682;50.874;3.656;2023-07-29T12:03:32;2.90;;;1.67;;
21046;SDS011;10682;50.874;3.656;2023-07-29T12:05:59;4.13;;;1.67;;
21046;SDS011;10682;50.874;3.656;2023-07-29T12:08:26;2.05;;;1.70;;
21046;SDS011;10682;50.874;3.656;2023-07-29T12:10:54;2.58;;;1.70;;
21046;SDS011;10682;50.874;3.656;2023-07-29T12:13:23;2.90;;;1.70;;
21046;SDS011;10682;50.874;3.656;2023-07-29T12:16:00;1.70;;;1.60;;
21046;SDS011;10682;50.874;3.656;2023-07-29T12:18:31;4.50;;;1.80;;
21046;SDS011;10682;50.874;3.656;2023-07-29T12:20:59;2.75;;;1.70;;
21046;SDS011;10682;50.874;3.656;2023-07-29T12:23:27;2.55;;;1.60;;
21046;SDS011;10682;50.874;3.656;2023-07-29T12:25:59;2.10;;;1.40;;
21046;SDS011;10682;50.874;3.656;2023-07-29T12:28:26;1.63;;;1.50;;
21046;SDS011;10682;50.874;3.656;2023-07-29T12:30:54;2.08;;;1.40;;
21046;SDS011;10682;50.874;3.656;2023-07-29T12:33:35;3.67;;;1.50;;
21046;SDS011;10682;50.874;3.656;2023-07-29T12:36:08;4.50;;;1.40;;
21046;SDS011;10682;50.874;3.656;2023-07-29T12:38:36;4.50;;;1.40;;
21046;SDS011;10682;50.874;3.656;2023-07-29T12:41:04;2.88;;;1.35;;
21046;SDS011;10682;50.874;3.656;2023-07-29T12:43:31;1.70;;;1.40;;
21046;SDS011;10682;50.874;3.656;2023-07-29T12:45:58;3.50;;;1.20;;
21046;SDS011;10682;50.874;3.656;2023-07-29T12:48:25;2.13;;;1.10;;
21046;SDS011;10682;50.874;3.656;2023-07-29T12:50:52;3.25;;;1.17;;
21046;SDS011;10682;50.874;3.656;2023-07-29T12:53:19;2.28;;;1.25;;
21046;SDS011;10682;50.874;3.656;2023-07-29T12:55:46;1.10;;;0.95;;
21046;SDS011;10682;50.874;3.656;2023-07-29T12:58:13;3.72;;;1.17;;
21046;SDS011;10682;50.874;3.656;2023-07-29T13:00:40;1.98;;;1.17;;
21046;SDS011;10682;50.874;3.656;2023-07-29T13:03:07;3.33;;;1.17;;
21046;SDS011;10682;50.874;3.656;2023-07-29T13:05:35;2.15;;;1.30;;
21046;SDS011;10682;50.874;3.656;2023-07-29T13:08:02;2.08;;;1.20;;
21046;SDS011;10682;50.874;3.656;2023-07-29T13:10:29;6.28;;;1.33;;
21046;SDS011;10682;50.874;3.656;2023-07-29T13:13:05;2.00;;;1.17;;
21046;SDS011;10682;50.874;3.656;2023-07-29T13:18:21;1.90;;;1.42;;
21046;SDS011;10682;50.874;3.656;2023-07-29T13:20:48;2.75;;;1.40;;
21046;SDS011;10682;50.874;3.656;2023-07-29T13:23:16;3.20;;;1.30;;
21046;SDS011;10682;50.874;3.656;2023-07-29T13:25:43;2.35;;;1.30;;
21046;SDS011;10682;50.874;3.656;2023-07-29T13:28:11;1.52;;;1.20;;
21046;SDS011;10682;50.874;3.656;2023-07-29T13:30:41;1.83;;;1.35;;
21046;SDS011;10682;50.874;3.656;2023-07-29T13:33:08;3.75;;;1.80;;
21046;SDS011;10682;50.874;3.656;2023-07-29T13:35:36;3.55;;;2.05;;
21046;SDS011;10682;50.874;3.656;2023-07-29T13:38:03;2.70;;;1.95;;
21046;SDS011;10682;50.874;3.656;2023-07-29T13:40:31;2.53;;;2.05;;
21046;SDS011;10682;50.874;3.656;2023-07-29T13:42:58;2.45;;;2.00;;
21046;SDS011;10682;50.874;3.656;2023-07-29T13:45:25;4.63;;;2.10;;
21046;SDS011;10682;50.874;3.656;2023-07-29T13:47:52;3.17;;;2.60;;
21046;SDS011;10682;50.874;3.656;2023-07-29T13:50:20;8.13;;;2.50;;
21046;SDS011;10682;50.874;3.656;2023-07-29T13:52:48;4.03;;;2.42;;
21046;SDS011;10682;50.874;3.656;2023-07-29T13:55:15;4.25;;;2.50;;
21046;SDS011;10682;50.874;3.656;2023-07-29T13:57:42;2.28;;;1.80;;
21046;SDS011;10682;50.874;3.656;2023-07-29T14:00:09;3.33;;;1.97;;
21046;SDS011;10682;50.874;3.656;2023-07-29T14:02:37;2.08;;;1.50;;
21046;SDS011;10682;50.874;3.656;2023-07-29T14:05:04;2.25;;;1.52;;
21046;SDS011;10682;50.874;3.656;2023-07-29T14:07:33;3.05;;;1.70;;
21046;SDS011;10682;50.874;3.656;2023-07-29T14:10:00;2.40;;;1.33;;
21046;SDS011;10682;50.874;3.656;2023-07-29T14:12:28;1.70;;;1.60;;
21046;SDS011;10682;50.874;3.656;2023-07-29T14:14:55;3.22;;;1.75;;
21046;SDS011;10682;50.874;3.656;2023-07-29T14:17:22;2.47;;;1.77;;
21046;SDS011;10682;50.874;3.656;2023-07-29T14:19:49;2.55;;;1.95;;
21046;SDS011;10682;50.874;3.656;2023-07-29T14:22:17;1.75;;;1.65;;
21046;SDS011;10682;50.874;3.656;2023-07-29T14:24:44;0.98;;;0.90;;
21046;SDS011;10682;50.874;3.656;2023-07-29T14:27:11;0.95;;;0.80;;
21046;SDS011;10682;50.874;3.656;2023-07-29T14:29:38;1.40;;;0.98;;
21046;SDS011;10682;50.874;3.656;2023-07-29T14:32:05;0.77;;;0.75;;
21046;SDS011;10682;50.874;3.656;2023-07-29T14:34:32;3.40;;;0.88;;
21046;SDS011;10682;50.874;3.656;2023-07-29T14:36:59;1.08;;;0.77;;
21046;SDS011;10682;50.874;3.656;2023-07-29T14:39:26;1.67;;;0.90;;
21046;SDS011;10682;50.874;3.656;2023-07-29T14:41:54;1.73;;;0.90;;
21046;SDS011;10682;50.874;3.656;2023-07-29T14:44:21;1.00;;;0.80;;
21046;SDS011;10682;50.874;3.656;2023-07-29T14:46:49;0.93;;;0.80;;
21046;SDS011;10682;50.874;3.656;2023-07-29T14:49:16;1.58;;;0.93;;
21046;SDS011;10682;50.874;3.656;2023-07-29T14:51:43;1.40;;;0.98;;
21046;SDS011;10682;50.874;3.656;2023-07-29T14:54:10;2.05;;;0.80;;
21046;SDS011;10682;50.874;3.656;2023-07-29T14:56:38;1.83;;;0.98;;
21046;SDS011;10682;50.874;3.656;2023-07-29T14:59:05;2.75;;;0.80;;
21046;SDS011;10682;50.874;3.656;2023-07-29T15:01:33;1.42;;;0.90;;
21046;SDS011;10682;50.874;3.656;2023-07-29T15:04:00;2.05;;;0.88;;
21046;SDS011;10682;50.874;3.656;2023-07-29T15:06:27;1.45;;;0.90;;
21046;SDS011;10682;50.874;3.656;2023-07-29T15:09:01;2.40;;;1.17;;
21046;SDS011;10682;50.874;3.656;2023-07-29T15:11:28;1.73;;;0.75;;
21046;SDS011;10682;50.874;3.656;2023-07-29T15:13:55;2.33;;;0.98;;
21046;SDS011;10682;50.874;3.656;2023-07-29T15:16:23;2.15;;;1.08;;
21046;SDS011;10682;50.874;3.656;2023-07-29T15:19:03;4.50;;;0.80;;